createdAt,value
2023-06-10T00:00:06.846Z,72.55
2023-06-10T00:02:37.125Z,71.85
2023-06-10T00:05:04.653Z,72.45
2023-06-10T00:07:31.545Z,72.91
2023-06-10T00:09:58.530Z,72.69
2023-06-10T00:12:25.484Z,72.91
2023-06-10T00:14:54.624Z,73.82
2023-06-10T00:17:24.088Z,73.95
2023-06-10T00:19:51.699Z,73.84
2023-06-10T00:22:18.755Z,74.11
2023-06-10T00:24:45.871Z,74.11
2023-06-10T00:27:12.806Z,73.95
2023-06-10T00:29:40.118Z,73.70
2023-06-10T00:32:10.201Z,73.36
2023-06-10T00:34:37.175Z,72.98
2023-06-10T00:37:04.354Z,72.70
2023-06-10T00:39:31.442Z,72.29
2023-06-10T00:41:58.588Z,72.72
2023-06-10T00:44:27.704Z,72.65
2023-06-10T00:46:56.918Z,72.42
2023-06-10T00:49:23.860Z,72.46
2023-06-10T00:51:53.907Z,72.29
2023-06-10T00:54:23.204Z,72.29
2023-06-10T00:56:52.926Z,72.12
2023-06-10T00:59:20.247Z,72.95
2023-06-10T01:01:50.201Z,73.31
2023-06-10T01:04:18.308Z,73.01
2023-06-10T01:07:04.103Z,73.39
2023-06-10T01:10:00.427Z,72.21
2023-06-10T01:13:03.945Z,73.26
2023-06-10T01:15:32.762Z,74.95
2023-06-10T01:18:10.627Z,74.10
2023-06-10T01:20:41.328Z,73.88
2023-06-10T01:23:14.793Z,74.01
2023-06-10T01:25:50.926Z,73.09
2023-06-10T01:28:33.759Z,73.85
2023-06-10T01:31:37.665Z,74.46
2023-06-10T01:34:11.992Z,75.18
2023-06-10T01:36:41.914Z,74.78
2023-06-10T01:39:11.772Z,76.23
2023-06-10T01:41:39.458Z,75.96
2023-06-10T01:44:06.424Z,75.58
2023-06-10T01:46:36.486Z,75.71
2023-06-10T01:49:03.737Z,76.33
2023-06-10T01:51:32.724Z,76.56
2023-06-10T01:53:59.731Z,76.96
2023-06-10T01:56:26.735Z,76.63
2023-06-10T01:58:56.609Z,77.44
2023-06-10T02:01:23.580Z,77.74
2023-06-10T02:03:55.189Z,77.21
2023-06-10T02:06:22.311Z,76.97
2023-06-10T02:08:49.245Z,76.76
2023-06-10T02:11:16.169Z,77.27
2023-06-10T02:13:43.118Z,78.27
2023-06-10T02:16:15.184Z,77.04
2023-06-10T02:18:45.235Z,75.82
2023-06-10T02:21:12.154Z,75.42
2023-06-10T02:23:39.137Z,75.10
2023-06-10T02:26:09.374Z,75.42
2023-06-10T02:28:38.881Z,76.92
2023-06-10T02:31:06.502Z,77.20
2023-06-10T02:33:34.891Z,76.86
2023-06-10T02:36:01.911Z,77.60
2023-06-10T02:38:28.830Z,77.02
2023-06-10T02:40:56.024Z,76.20
2023-06-10T02:43:25.279Z,78.01
2023-06-10T02:45:52.218Z,77.56
2023-06-10T02:48:23.869Z,76.84
2023-06-10T02:50:50.807Z,76.16
2023-06-10T02:53:19.880Z,76.49
2023-06-10T02:55:46.792Z,76.66
2023-06-10T02:58:13.854Z,76.26
2023-06-10T03:00:42.209Z,76.71
2023-06-10T03:03:09.609Z,76.40
2023-06-10T03:05:36.653Z,76.62
2023-06-10T03:08:03.740Z,75.17
2023-06-10T03:10:35.870Z,76.06
2023-06-10T03:13:06.045Z,75.58
2023-06-10T03:15:37.429Z,75.63
2023-06-10T03:18:04.592Z,75.17
2023-06-10T03:20:31.816Z,74.86
2023-06-10T03:23:01.488Z,74.75
2023-06-10T03:25:29.842Z,74.21
2023-06-10T03:27:56.883Z,74.68
2023-06-10T03:30:26.149Z,73.75
2023-06-10T03:32:53.129Z,73.16
2023-06-10T03:35:20.245Z,72.79
2023-06-10T03:37:47.602Z,72.57
2023-06-10T03:40:16.964Z,72.62
2023-06-10T03:42:45.175Z,72.61
2023-06-10T03:45:14.604Z,71.93
2023-06-10T03:47:45.034Z,70.92
2023-06-10T03:50:14.496Z,71.12
2023-06-10T03:52:42.088Z,71.31
2023-06-10T03:55:09.810Z,70.61
2023-06-10T03:57:36.991Z,71.04
2023-06-10T04:00:13.478Z,71.68
2023-06-10T04:02:47.536Z,71.78
2023-06-10T04:05:16.489Z,70.90
2023-06-10T04:07:44.975Z,71.44
2023-06-10T04:10:13.053Z,70.90
2023-06-10T04:12:40.707Z,71.00
2023-06-10T04:15:08.479Z,72.07
2023-06-10T04:17:36.278Z,71.99
2023-06-10T04:20:05.053Z,71.03
2023-06-10T04:22:31.973Z,70.90
2023-06-10T04:25:01.565Z,71.85
2023-06-10T04:27:28.901Z,71.48
2023-06-10T04:29:55.784Z,71.82
2023-06-10T04:32:25.206Z,71.89
2023-06-10T04:34:54.759Z,71.85
2023-06-10T04:37:21.935Z,71.15
2023-06-10T04:39:48.956Z,71.56
2023-06-10T04:42:16.123Z,70.57
2023-06-10T04:44:47.765Z,70.34
2023-06-10T04:47:18.215Z,69.25
2023-06-10T04:49:45.639Z,69.24
2023-06-10T04:52:12.650Z,68.54
2023-06-10T04:54:42.612Z,69.80
2023-06-10T04:57:09.602Z,69.00
2023-06-10T04:59:38.707Z,68.63
2023-06-10T05:02:06.633Z,68.59
2023-06-10T05:04:38.258Z,68.85
2023-06-10T05:07:06.081Z,69.50
2023-06-10T05:09:34.092Z,68.74
2023-06-10T05:12:03.907Z,68.13
2023-06-10T05:14:30.786Z,68.55
2023-06-10T05:17:07.139Z,67.16
2023-06-10T05:19:34.276Z,66.89
2023-06-10T05:22:04.024Z,66.90
2023-06-10T05:24:30.918Z,66.26
2023-06-10T05:27:00.538Z,67.04
2023-06-10T05:29:29.712Z,66.08
2023-06-10T05:31:58.798Z,67.17
2023-06-10T05:34:28.791Z,67.66
2023-06-10T05:36:55.780Z,66.99
2023-06-10T05:39:25.921Z,65.93
2023-06-10T05:41:55.304Z,65.13
2023-06-10T05:44:24.434Z,64.03
2023-06-10T05:46:54.404Z,64.34
2023-06-10T05:49:21.383Z,63.46
2023-06-10T05:51:48.345Z,62.44
2023-06-10T05:54:15.261Z,62.29
2023-06-10T05:56:42.207Z,62.58
2023-06-10T05:59:09.409Z,62.72
2023-06-10T06:01:38.503Z,63.19
2023-06-10T06:04:07.824Z,64.37
2023-06-10T06:06:39.417Z,64.03
2023-06-10T06:09:09.821Z,63.80
2023-06-10T06:11:36.912Z,64.16
2023-06-10T06:14:03.909Z,64.01
2023-06-10T06:16:36.392Z,64.66
2023-06-10T06:19:03.382Z,64.58
2023-06-10T06:21:37.516Z,63.57
2023-06-10T06:24:09.815Z,63.49
2023-06-10T06:26:39.346Z,64.29
2023-06-10T06:29:06.417Z,62.95
2023-06-10T06:31:33.385Z,63.07
2023-06-10T06:34:00.599Z,63.16
2023-06-10T06:36:30.017Z,62.90
2023-06-10T06:38:57.070Z,64.02
2023-06-10T06:41:24.034Z,63.89
2023-06-10T06:43:50.928Z,64.22
2023-06-10T06:46:19.950Z,64.75
2023-06-10T06:48:47.123Z,64.82
2023-06-10T06:51:14.288Z,65.28
2023-06-10T06:53:45.435Z,64.37
2023-06-10T06:56:13.379Z,63.98
2023-06-10T06:58:44.810Z,62.98
2023-06-10T07:01:11.719Z,63.10
2023-06-10T07:03:38.635Z,63.26
2023-06-10T07:06:08.046Z,63.95
2023-06-10T07:11:01.898Z,64.07
2023-06-10T07:13:28.873Z,62.99
2023-06-10T07:15:55.778Z,61.96
2023-06-10T07:18:22.745Z,61.99
2023-06-10T07:20:49.858Z,63.05
2023-06-10T07:23:23.895Z,62.88
2023-06-10T07:25:53.044Z,62.18
2023-06-10T07:28:20.005Z,60.70
2023-06-10T07:30:49.269Z,60.66
2023-06-10T07:33:16.285Z,59.92
2023-06-10T07:35:48.440Z,60.07
2023-06-10T07:38:15.515Z,59.24
2023-06-10T07:40:42.455Z,59.67
2023-06-10T07:43:11.548Z,60.35
2023-06-10T07:45:40.854Z,60.00
2023-06-10T07:48:10.354Z,59.05
2023-06-10T07:50:41.408Z,58.70
2023-06-10T07:53:10.878Z,58.07
2023-06-10T07:55:37.864Z,58.26
2023-06-10T07:58:06.868Z,57.05
2023-06-10T08:00:33.745Z,56.57
2023-06-10T08:03:02.876Z,56.27
2023-06-10T08:05:30.235Z,56.01
2023-06-10T08:08:01.376Z,55.74
2023-06-10T08:10:32.975Z,55.17
2023-06-10T08:13:02.424Z,55.35
2023-06-10T08:15:29.592Z,54.26
2023-06-10T08:17:59.600Z,53.27
2023-06-10T08:20:30.869Z,53.90
2023-06-10T08:22:57.767Z,54.02
2023-06-10T08:25:24.791Z,52.88
2023-06-10T08:27:53.072Z,52.52
2023-06-10T08:30:20.042Z,53.10
2023-06-10T08:32:49.604Z,53.39
2023-06-10T08:35:16.533Z,53.03
2023-06-10T08:37:46.409Z,53.11
2023-06-10T08:40:16.364Z,51.29
2023-06-10T08:43:14.101Z,50.84
2023-06-10T08:45:47.146Z,51.16
2023-06-10T08:48:16.165Z,51.22
2023-06-10T08:50:43.563Z,50.47
2023-06-10T08:53:19.615Z,49.41
2023-06-10T08:55:55.066Z,48.54
2023-06-10T08:58:22.412Z,49.58
2023-06-10T09:00:54.851Z,49.27
2023-06-10T09:03:23.073Z,49.59
2023-06-10T09:05:51.068Z,49.48
2023-06-10T09:08:18.347Z,49.15
2023-06-10T09:10:45.352Z,48.99
2023-06-10T09:13:12.279Z,47.47
2023-06-10T09:15:41.325Z,47.96
2023-06-10T09:18:08.544Z,48.52
2023-06-10T09:20:40.571Z,47.64
2023-06-10T09:23:10.792Z,46.98
2023-06-10T09:25:40.704Z,46.41
2023-06-10T09:28:16.082Z,46.71
2023-06-10T09:30:45.587Z,47.36
2023-06-10T09:33:17.261Z,47.46
2023-06-10T09:35:56.902Z,48.31
2023-06-10T09:38:31.020Z,47.46
2023-06-10T09:40:57.923Z,46.76
2023-06-10T09:43:39.763Z,46.14
2023-06-10T09:46:09.417Z,46.09
2023-06-10T09:48:42.699Z,46.36
2023-06-10T09:51:18.333Z,46.08
2023-06-10T09:53:55.443Z,45.90
2023-06-10T09:56:34.296Z,45.10
2023-06-10T09:59:01.266Z,45.13
2023-06-10T10:01:31.394Z,45.44
2023-06-10T10:03:58.906Z,44.95
2023-06-10T10:06:26.921Z,44.59
2023-06-10T10:08:55.273Z,43.92
2023-06-10T10:11:23.923Z,44.92
2023-06-10T10:13:56.168Z,44.54
2023-06-10T10:16:39.980Z,43.60
2023-06-10T10:19:28.866Z,42.98
2023-06-10T10:22:03.104Z,43.08
2023-06-10T10:24:38.012Z,42.72
2023-06-10T10:27:50.286Z,43.57
2023-06-10T10:30:24.330Z,42.34
2023-06-10T10:33:02.778Z,42.13
2023-06-10T10:35:31.724Z,41.04
2023-06-10T10:38:01.036Z,40.79
2023-06-10T10:40:30.562Z,41.96
2023-06-10T10:43:01.610Z,41.65
2023-06-10T10:45:34.681Z,41.94
2023-06-10T10:48:12.674Z,42.09
2023-06-10T10:50:42.313Z,42.39
2023-06-10T10:53:09.627Z,42.32
2023-06-10T10:55:39.731Z,42.43
2023-06-10T10:58:13.105Z,41.62
2023-06-10T11:00:46.278Z,39.47
2023-06-10T11:03:20.899Z,39.71
2023-06-10T11:05:52.220Z,39.53
2023-06-10T11:08:34.350Z,39.54
2023-06-10T11:11:01.395Z,40.07
2023-06-10T11:13:28.941Z,39.78
2023-06-10T11:15:59.540Z,39.44
2023-06-10T11:18:42.663Z,38.95
2023-06-10T11:21:11.663Z,39.91
2023-06-10T11:23:43.278Z,38.83
2023-06-10T11:26:44.687Z,38.68
2023-06-10T11:29:11.863Z,38.94
2023-06-10T11:31:50.574Z,38.21
2023-06-10T11:34:28.204Z,37.18
2023-06-10T11:36:58.698Z,37.04
2023-06-10T11:39:27.779Z,37.00
2023-06-10T11:41:55.198Z,36.75
2023-06-10T11:44:28.957Z,36.26
2023-06-10T11:47:00.194Z,36.98
2023-06-10T11:49:30.346Z,36.96
2023-06-10T11:51:59.677Z,36.02
2023-06-10T11:54:26.826Z,36.10
2023-06-10T11:57:01.102Z,36.15
2023-06-10T11:59:32.172Z,35.87
2023-06-10T12:02:04.762Z,36.56
2023-06-10T12:04:31.806Z,36.46
2023-06-10T12:06:58.808Z,35.63
2023-06-10T12:09:34.223Z,35.28
2023-06-10T12:12:09.880Z,35.05
2023-06-10T12:14:57.030Z,34.80
2023-06-10T12:17:39.528Z,34.44
2023-06-10T12:20:26.381Z,35.39
2023-06-10T12:22:53.824Z,34.33
2023-06-10T12:25:27.856Z,34.85
2023-06-10T12:27:58.422Z,35.30
2023-06-10T12:30:31.425Z,35.88
2023-06-10T12:32:59.176Z,33.69
2023-06-10T12:35:29.739Z,34.05
2023-06-10T12:37:58.789Z,34.38
2023-06-10T12:40:33.802Z,34.07
2023-06-10T12:43:02.241Z,34.45
2023-06-10T12:45:34.394Z,33.79
2023-06-10T12:48:26.194Z,34.13
2023-06-10T12:50:57.696Z,34.16
2023-06-10T12:53:25.749Z,33.63
2023-06-10T12:55:55.376Z,33.25
2023-06-10T12:58:25.804Z,32.99
2023-06-10T13:00:54.924Z,33.32
2023-06-10T13:03:22.697Z,33.23
2023-06-10T13:05:51.983Z,33.06
2023-06-10T13:08:19.200Z,33.43
2023-06-10T13:10:50.774Z,33.42
2023-06-10T13:13:18.713Z,33.40
2023-06-10T13:15:48.332Z,32.61
2023-06-10T13:18:15.336Z,33.08
2023-06-10T13:20:42.360Z,32.13
2023-06-10T13:23:11.599Z,32.11
2023-06-10T13:25:42.110Z,32.69
2023-06-10T13:28:09.055Z,32.42
2023-06-10T13:30:38.555Z,32.14
2023-06-10T13:33:07.836Z,32.27
2023-06-10T13:35:34.916Z,32.68
2023-06-10T13:38:04.179Z,32.56
2023-06-10T13:40:31.365Z,31.50
2023-06-10T13:42:58.482Z,31.52
2023-06-10T13:45:26.009Z,32.16
2023-06-10T13:47:53.105Z,32.25
2023-06-10T13:50:20.455Z,31.79
2023-06-10T13:52:47.429Z,32.28
2023-06-10T13:55:18.585Z,32.06
2023-06-10T13:57:47.633Z,31.31
2023-06-10T14:00:18.258Z,30.76
2023-06-10T14:02:45.891Z,30.75
2023-06-10T14:05:19.927Z,31.04
2023-06-10T14:07:47.074Z,30.81
2023-06-10T14:10:14.043Z,31.22
2023-06-10T14:12:41.089Z,30.58
2023-06-10T14:15:12.125Z,32.86
2023-06-10T14:17:41.526Z,32.63
2023-06-10T14:20:14.322Z,32.81
2023-06-10T14:22:41.637Z,32.88
2023-06-10T14:25:09.577Z,32.49
2023-06-10T14:27:36.739Z,32.04
2023-06-10T14:30:06.764Z,31.97
2023-06-10T14:32:34.030Z,31.93
2023-06-10T14:35:01.327Z,31.77
2023-06-10T14:37:30.861Z,31.71
2023-06-10T14:40:00.697Z,33.02
2023-06-10T14:42:30.478Z,31.94
2023-06-10T14:44:57.482Z,32.00
2023-06-10T14:47:24.772Z,31.03
2023-06-10T14:49:54.074Z,30.48
2023-06-10T14:52:21.010Z,30.94
2023-06-10T14:54:50.312Z,31.29
2023-06-10T14:57:17.436Z,31.37
2023-06-10T14:59:44.459Z,31.25
2023-06-10T15:02:14.404Z,31.32
2023-06-10T15:04:41.396Z,31.45
2023-06-10T15:07:11.064Z,31.23
2023-06-10T15:09:40.089Z,31.27
2023-06-10T15:12:07.700Z,31.53
2023-06-10T15:14:34.674Z,31.02
2023-06-10T15:17:01.751Z,30.25
2023-06-10T15:19:31.389Z,29.52
2023-06-10T15:22:01.379Z,29.53
2023-06-10T15:24:28.391Z,29.02
2023-06-10T15:26:58.383Z,29.42
2023-06-10T15:29:28.027Z,29.64
2023-06-10T15:32:00.017Z,30.36
2023-06-10T15:34:29.586Z,30.28
2023-06-10T15:36:59.623Z,32.79
2023-06-10T15:39:28.376Z,37.61
2023-06-10T15:41:57.808Z,38.10
2023-06-10T15:44:27.282Z,38.16
2023-06-10T15:46:54.378Z,38.07
2023-06-10T15:49:21.338Z,37.28
2023-06-10T15:51:53.000Z,36.95
2023-06-10T15:54:20.034Z,36.92
2023-06-10T15:56:47.021Z,35.91
2023-06-10T15:59:14.181Z,37.60
2023-06-10T16:01:41.187Z,38.46
2023-06-10T16:04:13.312Z,39.26
2023-06-10T16:06:40.554Z,39.32
2023-06-10T16:09:10.207Z,38.68
2023-06-10T16:11:37.331Z,39.94
2023-06-10T16:14:04.413Z,41.23
2023-06-10T16:16:31.463Z,41.88
2023-06-10T16:18:58.875Z,39.94
2023-06-10T16:21:26.224Z,39.09
2023-06-10T16:23:53.432Z,38.28
2023-06-10T16:26:23.332Z,37.08
2023-06-10T16:28:50.444Z,36.44
2023-06-10T16:31:17.538Z,35.37
2023-06-10T16:33:44.532Z,35.99
2023-06-10T16:36:11.497Z,35.34
2023-06-10T16:38:38.418Z,34.72
2023-06-10T16:41:05.412Z,36.42
2023-06-10T16:43:34.925Z,36.99
2023-06-10T16:46:02.098Z,37.91
2023-06-10T16:48:31.255Z,38.63
2023-06-10T16:50:58.432Z,38.84
2023-06-10T16:53:25.324Z,40.16
2023-06-10T16:55:52.367Z,38.60
2023-06-10T16:58:19.328Z,37.65
2023-06-10T17:00:46.964Z,36.84
2023-06-10T17:03:17.752Z,36.04
2023-06-10T17:05:47.986Z,35.36
2023-06-10T17:08:19.977Z,35.13
2023-06-10T17:10:47.007Z,35.17
2023-06-10T17:13:14.060Z,35.10
2023-06-10T17:15:41.795Z,35.17
2023-06-10T17:18:11.920Z,35.03
2023-06-10T17:20:39.051Z,35.10
2023-06-10T17:23:11.702Z,34.49
2023-06-10T17:25:38.810Z,35.01
2023-06-10T17:28:09.012Z,34.87
2023-06-10T17:30:36.136Z,35.02
2023-06-10T17:33:03.278Z,35.25
2023-06-10T17:35:30.460Z,37.83
2023-06-10T17:38:00.673Z,39.36
2023-06-10T17:40:29.957Z,40.00
2023-06-10T17:43:00.190Z,39.58
2023-06-10T17:45:33.025Z,38.95
2023-06-10T17:48:00.078Z,39.43
2023-06-10T17:50:30.006Z,39.39
2023-06-10T17:52:56.893Z,38.76
2023-06-10T17:55:26.719Z,38.43
2023-06-10T17:57:58.464Z,37.43
2023-06-10T18:00:31.158Z,37.36
2023-06-10T18:02:58.251Z,37.02
2023-06-10T18:05:25.325Z,36.42
2023-06-10T18:07:55.426Z,36.88
2023-06-10T18:10:22.505Z,36.54
2023-06-10T18:12:49.481Z,37.29
2023-06-10T18:15:16.513Z,38.13
2023-06-10T18:17:46.217Z,38.84
2023-06-10T18:20:14.476Z,39.21
2023-06-10T18:22:41.462Z,40.08
2023-06-10T18:25:09.036Z,40.96
2023-06-10T18:27:39.494Z,40.90
2023-06-10T18:30:10.421Z,40.68
2023-06-10T18:32:37.569Z,41.45
2023-06-10T18:35:07.751Z,42.10
2023-06-10T18:37:35.118Z,41.96
2023-06-10T18:40:02.323Z,42.21
2023-06-10T18:42:31.396Z,43.07
2023-06-10T18:45:03.269Z,43.55
2023-06-10T18:47:40.842Z,43.34
2023-06-10T18:50:16.226Z,42.98
2023-06-10T18:52:43.170Z,43.07
2023-06-10T18:55:10.403Z,43.40
2023-06-10T18:57:37.481Z,44.21
2023-06-10T19:00:07.404Z,44.85
2023-06-10T19:02:37.377Z,43.93
2023-06-10T19:05:04.817Z,44.24
2023-06-10T19:07:32.120Z,43.98
2023-06-10T19:10:03.872Z,44.75
2023-06-10T19:12:30.853Z,46.85
2023-06-10T19:14:57.903Z,47.73
2023-06-10T19:17:24.964Z,49.63
2023-06-10T19:19:53.975Z,49.85
2023-06-10T19:22:23.430Z,50.14
2023-06-10T19:25:08.534Z,51.78
2023-06-10T19:27:38.010Z,53.96
2023-06-10T19:30:11.239Z,54.67
2023-06-10T19:32:38.426Z,54.23
2023-06-10T19:35:08.958Z,54.85
2023-06-10T19:37:36.176Z,55.08
2023-06-10T19:40:08.271Z,54.61
2023-06-10T19:42:39.792Z,54.22
2023-06-10T19:45:09.545Z,53.98
2023-06-10T19:47:41.439Z,54.37
2023-06-10T19:50:14.272Z,54.19
2023-06-10T19:52:41.459Z,53.19
2023-06-10T19:55:09.598Z,52.59
2023-06-10T19:57:39.734Z,52.72
2023-06-10T20:00:08.774Z,52.79
2023-06-10T20:02:38.353Z,53.48
2023-06-10T20:05:08.049Z,52.62
2023-06-10T20:07:37.306Z,52.67
2023-06-10T20:10:04.851Z,52.76
2023-06-10T20:12:31.882Z,51.87
2023-06-10T20:15:01.807Z,51.70
2023-06-10T20:17:28.934Z,51.31
2023-06-10T20:19:56.158Z,51.18
2023-06-10T20:22:23.155Z,50.65
2023-06-10T20:24:55.988Z,50.66
2023-06-10T20:27:25.560Z,50.26
2023-06-10T20:29:57.196Z,50.46
2023-06-10T20:32:24.853Z,50.32
2023-06-10T20:34:52.234Z,49.22
2023-06-10T20:37:19.311Z,47.63
2023-06-10T20:39:53.304Z,45.79
2023-06-10T20:42:22.748Z,44.87
2023-06-10T20:44:52.804Z,43.23
2023-06-10T20:47:22.766Z,42.99
2023-06-10T20:49:52.498Z,42.28
2023-06-10T20:52:22.411Z,42.64
2023-06-10T20:54:51.654Z,43.64
2023-06-10T20:57:21.827Z,43.86
2023-06-10T20:59:49.203Z,43.22
2023-06-10T21:02:16.260Z,43.79
2023-06-10T21:04:43.277Z,43.13
2023-06-10T21:07:10.654Z,43.08
2023-06-10T21:09:37.567Z,42.62
2023-06-10T21:12:05.166Z,43.02
2023-06-10T21:14:32.138Z,42.24
2023-06-10T21:16:59.235Z,42.14
2023-06-10T21:19:26.122Z,42.15
2023-06-10T21:21:55.292Z,42.12
2023-06-10T21:24:22.262Z,42.02
2023-06-10T21:26:49.239Z,41.77
2023-06-10T21:29:19.172Z,41.46
2023-06-10T21:31:51.188Z,41.64
2023-06-10T21:34:22.870Z,41.80
2023-06-10T21:36:52.030Z,41.38
2023-06-10T21:39:21.921Z,41.03
2023-06-10T21:41:51.145Z,41.11
2023-06-10T21:44:18.036Z,41.42
2023-06-10T21:46:44.982Z,41.70
2023-06-10T21:49:16.425Z,41.94
2023-06-10T21:51:45.676Z,41.75
2023-06-10T21:54:13.508Z,41.77
2023-06-10T21:56:40.904Z,41.95
2023-06-10T21:59:07.785Z,41.54
2023-06-10T22:01:36.715Z,41.64
2023-06-10T22:04:03.991Z,41.13
2023-06-10T22:06:34.709Z,41.40
2023-06-10T22:09:04.199Z,41.43
2023-06-10T22:11:31.210Z,41.42
2023-06-10T22:13:58.156Z,41.69
2023-06-10T22:16:25.136Z,41.03
2023-06-10T22:18:54.612Z,40.93
2023-06-10T22:21:26.161Z,40.44
2023-06-10T22:23:55.680Z,40.47
2023-06-10T22:26:36.865Z,40.54
2023-06-10T22:29:13.011Z,40.10
2023-06-10T22:31:39.980Z,40.12
2023-06-10T22:34:06.926Z,40.03
2023-06-10T22:36:37.343Z,40.00
2023-06-10T22:39:12.761Z,39.60
2023-06-10T22:41:41.012Z,40.18
2023-06-10T22:44:07.965Z,39.83
2023-06-10T22:46:37.618Z,39.33
2023-06-10T22:49:04.827Z,39.69
2023-06-10T22:51:34.590Z,39.89
2023-06-10T22:54:01.455Z,39.61
2023-06-10T22:56:28.455Z,40.32
2023-06-10T22:58:58.436Z,39.83
2023-06-10T23:01:25.521Z,40.17
2023-06-10T23:03:55.524Z,40.57
2023-06-10T23:06:22.803Z,39.99
2023-06-10T23:08:51.887Z,39.73
2023-06-10T23:11:18.894Z,39.93
2023-06-10T23:13:45.887Z,40.04
2023-06-10T23:16:15.872Z,40.25
2023-06-10T23:18:42.832Z,40.35
2023-06-10T23:21:15.777Z,40.24
2023-06-10T23:23:46.089Z,39.91
2023-06-10T23:26:13.110Z,40.31
2023-06-10T23:28:39.976Z,40.35
2023-06-10T23:31:08.935Z,41.21
2023-06-10T23:33:36.057Z,41.59
2023-06-10T23:36:06.175Z,41.16
2023-06-10T23:38:35.656Z,41.06
2023-06-10T23:41:02.582Z,41.35
2023-06-10T23:43:29.500Z,41.58
2023-06-10T23:45:56.425Z,41.67
2023-06-10T23:48:25.759Z,42.17
2023-06-10T23:50:55.982Z,42.37
2023-06-10T23:53:25.309Z,42.78
2023-06-10T23:55:52.317Z,43.34
2023-06-10T23:58:19.516Z,43.86
